createdAt,value
2019-03-20T00:04:21.259Z,7.13
2019-03-20T00:09:30.365Z,6.90
2019-03-20T00:14:40.370Z,8.67
2019-03-20T00:19:44.059Z,9.00
2019-03-20T00:24:47.375Z,7.53
2019-03-20T00:29:55.711Z,7.10
2019-03-20T00:35:01.127Z,7.23
2019-03-20T00:40:07.199Z,7.33
2019-03-20T00:45:15.159Z,7.40
2019-03-20T00:50:19.283Z,7.23
2019-03-20T00:55:22.806Z,7.67
2019-03-20T01:00:26.167Z,6.03
2019-03-20T01:05:29.693Z,7.03
2019-03-20T01:10:32.991Z,6.90
2019-03-20T01:15:36.271Z,6.97
2019-03-20T01:20:39.627Z,7.00
2019-03-20T01:25:43.153Z,7.40
2019-03-20T01:30:46.447Z,7.00
2019-03-20T01:35:49.750Z,7.50
2019-03-20T01:40:53.045Z,6.27
2019-03-20T01:45:56.564Z,6.83
2019-03-20T01:51:15.237Z,6.67
2019-03-20T01:56:18.947Z,6.10
2019-03-20T02:01:22.473Z,8.00
2019-03-20T02:06:26.023Z,7.00
2019-03-20T02:11:29.571Z,7.27
2019-03-20T02:16:33.218Z,6.80
2019-03-20T02:21:36.863Z,8.13
2019-03-20T02:26:40.403Z,7.87
2019-03-20T02:31:43.953Z,7.47
2019-03-20T02:36:47.268Z,7.90
2019-03-20T02:41:50.914Z,7.50
2019-03-20T02:46:54.207Z,8.10
2019-03-20T02:51:57.497Z,8.67
2019-03-20T02:57:00.798Z,8.37
2019-03-20T03:02:04.354Z,8.07
2019-03-20T03:07:07.644Z,7.87
2019-03-20T03:12:10.937Z,7.80
2019-03-20T03:17:14.209Z,7.57
2019-03-20T03:22:17.728Z,7.40
2019-03-20T03:27:21.099Z,8.00
2019-03-20T03:32:24.392Z,7.57
2019-03-20T03:37:27.697Z,7.40
2019-03-20T03:42:31.250Z,8.03
2019-03-20T03:47:34.547Z,7.90
2019-03-20T03:52:38.089Z,7.63
2019-03-20T03:57:41.413Z,7.53
2019-03-20T04:02:44.703Z,7.57
2019-03-20T04:07:48.235Z,8.30
2019-03-20T04:12:51.523Z,7.30
2019-03-20T04:17:54.814Z,7.90
2019-03-20T04:22:58.111Z,6.67
2019-03-20T04:28:01.430Z,7.43
2019-03-20T04:33:04.787Z,6.93
2019-03-20T04:38:08.316Z,7.20
2019-03-20T04:43:11.584Z,7.80
2019-03-20T04:48:14.853Z,7.00
2019-03-20T04:53:18.393Z,7.23
2019-03-20T04:58:21.961Z,6.87
2019-03-20T05:03:25.517Z,6.13
2019-03-20T05:08:28.820Z,7.00
2019-03-20T05:13:32.100Z,7.47
2019-03-20T05:18:35.407Z,6.53
2019-03-20T05:23:38.679Z,6.07
2019-03-20T05:28:41.978Z,6.03
2019-03-20T05:33:45.244Z,6.13
2019-03-20T05:38:48.539Z,6.07
2019-03-20T05:43:52.056Z,5.57
2019-03-20T05:48:55.341Z,6.90
2019-03-20T05:53:58.865Z,5.37
2019-03-20T05:59:02.401Z,6.00
2019-03-20T06:04:05.935Z,6.03
2019-03-20T06:09:09.213Z,5.20
2019-03-20T06:14:12.504Z,5.90
2019-03-20T06:19:16.081Z,5.27
2019-03-20T06:24:19.602Z,4.77
2019-03-20T06:29:23.117Z,5.13
2019-03-20T06:34:26.404Z,5.53
2019-03-20T06:39:29.944Z,5.07
2019-03-20T06:44:33.233Z,5.83
2019-03-20T06:49:36.506Z,4.80
2019-03-20T06:54:39.790Z,5.30
2019-03-20T06:59:58.655Z,4.80
2019-03-20T07:05:32.333Z,4.17
2019-03-20T07:10:56.536Z,4.43
2019-03-20T07:15:59.824Z,4.63
2019-03-20T07:21:03.193Z,4.30
2019-03-20T07:26:06.601Z,4.23
2019-03-20T07:31:15.289Z,4.40
2019-03-20T07:36:15.233Z,4.30
2019-03-20T07:41:18.827Z,3.83
2019-03-20T07:46:22.359Z,5.00
2019-03-20T07:51:25.634Z,4.03
2019-03-20T07:56:29.158Z,4.70
2019-03-20T08:01:32.443Z,3.80
2019-03-20T08:06:35.722Z,4.10
2019-03-20T08:11:39.032Z,4.23
2019-03-20T08:16:42.586Z,4.33
2019-03-20T08:21:46.109Z,3.63
2019-03-20T08:26:49.400Z,4.27
2019-03-20T08:31:52.661Z,3.97
2019-03-20T08:36:56.192Z,4.00
2019-03-20T08:41:59.486Z,4.20
2019-03-20T08:47:02.759Z,3.87
2019-03-20T08:52:06.282Z,4.07
2019-03-20T08:57:09.825Z,3.90
2019-03-20T09:02:13.346Z,3.97
2019-03-20T09:07:16.636Z,4.80
2019-03-20T09:12:19.918Z,4.23
2019-03-20T09:17:23.448Z,4.20
2019-03-20T09:22:26.968Z,4.30
2019-03-20T09:27:30.494Z,5.27
2019-03-20T09:32:33.781Z,5.03
2019-03-20T09:37:37.300Z,4.57
2019-03-20T09:42:40.584Z,5.63
2019-03-20T09:47:44.011Z,5.37
2019-03-20T09:52:47.297Z,4.90
2019-03-20T09:57:50.884Z,5.50
2019-03-20T10:02:54.694Z,5.60
2019-03-20T10:07:57.982Z,5.80
2019-03-20T10:13:01.525Z,5.53
2019-03-20T10:18:04.956Z,5.40
2019-03-20T10:23:08.480Z,5.77
2019-03-20T10:28:12.062Z,5.80
2019-03-20T10:33:16.718Z,6.13
2019-03-20T10:38:20.335Z,5.73
2019-03-20T10:43:23.870Z,5.13
2019-03-20T10:48:27.435Z,3.77
2019-03-20T10:53:31.091Z,1.70
2019-03-20T10:58:34.659Z,1.63
2019-03-20T11:03:38.182Z,1.70
2019-03-20T11:08:41.533Z,1.80
2019-03-20T11:13:45.057Z,1.90
2019-03-20T11:18:48.696Z,1.90
2019-03-20T11:23:52.242Z,2.10
2019-03-20T11:28:55.776Z,1.50
2019-03-20T11:33:59.313Z,0.77
2019-03-20T11:39:03.393Z,0.97
2019-03-20T11:44:06.989Z,0.60
2019-03-20T11:49:10.275Z,0.90
2019-03-20T11:54:13.813Z,0.63
2019-03-20T11:59:17.123Z,0.60
2019-03-20T12:04:20.381Z,0.60
2019-03-20T12:09:23.959Z,0.80
2019-03-20T12:14:27.246Z,0.50
2019-03-20T12:19:30.540Z,0.70
2019-03-20T12:24:34.071Z,0.90
2019-03-20T12:29:37.621Z,1.07
2019-03-20T12:34:41.148Z,0.90
2019-03-20T12:39:52.788Z,0.80
2019-03-20T12:44:49.437Z,1.00
2019-03-20T12:49:52.974Z,0.80
2019-03-20T12:54:56.257Z,0.60
2019-03-20T12:59:59.835Z,0.50
2019-03-20T13:05:04.195Z,0.40
2019-03-20T13:10:10.593Z,0.63
2019-03-20T13:15:18.756Z,0.53
2019-03-20T13:20:22.286Z,0.83
2019-03-20T13:25:25.896Z,0.70
2019-03-20T13:30:40.268Z,0.77
2019-03-20T13:35:43.844Z,1.20
2019-03-20T13:40:47.085Z,1.20
2019-03-20T13:45:50.627Z,1.30
2019-03-20T13:50:53.999Z,1.17
2019-03-20T13:55:57.518Z,1.13
2019-03-20T14:01:02.729Z,1.80
2019-03-20T14:06:06.258Z,2.00
2019-03-20T14:11:09.543Z,1.60
2019-03-20T14:16:13.144Z,2.03
2019-03-20T14:21:16.675Z,1.80
2019-03-20T14:26:19.987Z,1.60
2019-03-20T14:31:23.523Z,2.07
2019-03-20T14:36:27.073Z,2.10
2019-03-20T14:41:30.345Z,2.67
2019-03-20T14:46:33.629Z,2.10
2019-03-20T14:51:37.157Z,2.20
2019-03-20T14:56:40.465Z,2.20
2019-03-20T15:01:43.752Z,3.10
2019-03-20T15:06:47.247Z,2.57
2019-03-20T15:11:50.519Z,3.23
2019-03-20T15:16:53.842Z,3.70
2019-03-20T15:21:57.360Z,2.77
2019-03-20T15:27:00.895Z,2.83
2019-03-20T15:32:04.184Z,3.17
2019-03-20T15:37:07.718Z,2.60
2019-03-20T15:42:11.006Z,2.10
2019-03-20T15:47:14.290Z,2.47
2019-03-20T15:52:17.566Z,2.33
2019-03-20T15:57:20.875Z,2.40
2019-03-20T16:02:24.173Z,2.67
2019-03-20T16:07:30.185Z,2.17
2019-03-20T16:12:34.318Z,2.27
2019-03-20T16:17:37.718Z,1.97
2019-03-20T16:22:41.262Z,1.77
2019-03-20T16:27:44.585Z,1.97
2019-03-20T16:32:49.659Z,2.00
2019-03-20T16:37:53.270Z,2.30
2019-03-20T16:42:56.599Z,2.03
2019-03-20T16:47:59.912Z,2.17
2019-03-20T16:53:04.059Z,2.70
2019-03-20T16:58:07.434Z,2.33
2019-03-20T17:03:10.975Z,2.00
2019-03-20T17:08:16.087Z,1.57
2019-03-20T17:13:19.392Z,1.87
2019-03-20T17:18:22.932Z,2.30
2019-03-20T17:23:26.515Z,2.10
2019-03-20T17:28:29.905Z,1.70
2019-03-20T17:33:33.432Z,1.57
2019-03-20T17:38:36.759Z,1.50
2019-03-20T17:43:40.249Z,2.13
2019-03-20T17:48:43.701Z,1.93
2019-03-20T17:53:47.231Z,2.13
2019-03-20T17:58:50.514Z,1.57
2019-03-20T18:03:54.059Z,1.40
2019-03-20T18:08:57.576Z,2.30
2019-03-20T18:14:01.131Z,2.77
2019-03-20T18:19:04.420Z,2.73
2019-03-20T18:24:07.712Z,3.03
2019-03-20T18:29:11.002Z,3.00
2019-03-20T18:34:14.284Z,2.10
2019-03-20T18:39:17.586Z,3.57
2019-03-20T18:44:20.892Z,2.50
2019-03-20T18:49:24.186Z,5.67
2019-03-20T18:54:27.780Z,4.47
2019-03-20T18:59:31.259Z,2.87
2019-03-20T19:04:34.835Z,2.63
2019-03-20T19:09:38.361Z,7.00
2019-03-20T19:14:41.675Z,13.73
2019-03-20T19:19:44.950Z,11.43
2019-03-20T19:24:48.251Z,5.37
2019-03-20T19:29:51.544Z,4.67
2019-03-20T19:34:55.075Z,13.07
2019-03-20T19:39:58.363Z,5.47
2019-03-20T19:45:01.673Z,6.20
2019-03-20T19:50:11.387Z,6.70
2019-03-20T19:55:18.150Z,6.20
2019-03-20T20:00:28.196Z,3.40
2019-03-20T20:05:31.713Z,3.33
2019-03-20T20:10:35.032Z,2.37
2019-03-20T20:15:38.549Z,2.77
2019-03-20T20:20:42.211Z,2.90
2019-03-20T20:25:45.740Z,3.87
2019-03-20T20:30:49.037Z,2.53
2019-03-20T20:35:52.323Z,2.50
2019-03-20T20:40:57.146Z,3.03
2019-03-20T20:46:00.763Z,2.90
2019-03-20T20:51:04.286Z,3.33
2019-03-20T20:56:07.827Z,2.60
2019-03-20T21:01:11.188Z,3.17
2019-03-20T21:06:14.471Z,2.90
2019-03-20T21:11:17.988Z,3.87
2019-03-20T21:16:21.271Z,3.50
2019-03-20T21:21:27.661Z,4.00
2019-03-20T21:26:52.437Z,3.53
2019-03-20T21:32:07.344Z,3.43
2019-03-20T21:37:54.777Z,4.00
2019-03-20T21:43:34.528Z,4.03
2019-03-20T21:48:42.044Z,2.67
2019-03-20T21:54:19.054Z,5.20
2019-03-20T21:59:58.769Z,5.43
2019-03-20T22:05:02.078Z,5.13
2019-03-20T22:10:28.709Z,5.63
2019-03-20T22:15:55.099Z,6.13
2019-03-20T22:21:09.015Z,6.27
2019-03-20T22:26:35.052Z,5.27
2019-03-20T22:31:47.075Z,5.20
2019-03-20T22:36:50.376Z,5.70
2019-03-20T22:42:16.373Z,7.67
2019-03-20T22:47:55.444Z,6.30
2019-03-20T22:53:35.132Z,5.53
2019-03-20T22:58:45.293Z,5.93
2019-03-20T23:03:51.759Z,6.13
2019-03-20T23:08:59.860Z,7.17
2019-03-20T23:14:21.373Z,7.13
2019-03-20T23:19:24.914Z,7.53
2019-03-20T23:29:53.918Z,6.43
2019-03-20T23:35:11.025Z,6.60
2019-03-20T23:40:19.064Z,8.43
2019-03-20T23:45:23.921Z,8.10
2019-03-20T23:50:29.447Z,5.90
2019-03-20T23:55:34.363Z,6.23
